Report METAR

 

LIBG - Grottaglie(Civ/A, Italy
Distanza dalla stazione: NE 13km
Dati ricevuti: 17/09/2021 19:50
Sereno
Sereno
 Vento da Variabile
Vento: Variabile 2 km/h
Temperatura: 26°C
P.to Rugiada: 23°C
Umidità: 84%
Barometro: 1013 hPa
Riassunto: Sereno
Visibilità: superiore a 10 km
2021/09/17 17:50 LIBG 171750Z VRB01KT CAVOK 26/23 Q1013
LIBH - Marina Di Ginosa, Italy
Distanza dalla stazione: O 33km
Dati ricevuti: 17/09/2021 18:55
DATI Obsoleti
Molto nuvoloso
Molto nuvoloso
 Vento da SE
Vento: SE 11 km/h
Temperatura: 27°C
Indice di Calore: 31°C
P.to Rugiada: 25°C
Umidità: 89%
Barometro: 1011 hPa
Nuvole: Molto nuvoloso
Visibilità: 10 km
Dettagli nuvole: Molto nuvoloso 762 m
2021/09/17 16:55 LIBH 171655Z 13006KT 9999 BKN025 27/25 Q1011 RMK BKN QUK 2 QUL 1 S VIS MAR 10 KM VIS MIN 9999
 
LIBV - Gioia Del Colle, Italy
Distanza dalla stazione: NO 45km
Dati ricevuti: 17/09/2021 19:55
Pioviggine, Parz. nuvoloso
Pioviggine, Parz. nuvoloso
 Vento da OSO
Vento: OSO 6 km/h
Temperatura: 24°C
P.to Rugiada: 22°C
Umidità: 89%
Barometro: 1014 hPa
Riassunto: Pioviggine
Nuvole: Parz. nuvoloso
Visibilità: 10 km
Dettagli nuvole: Parz. nuvoloso 1524 m
2021/09/17 17:55 LIBV 171755Z 25003KT 9999 -RA SCT050 24/22 Q1014 RMK OVC SCT110 VIS MIN 9999 WIND THR32 29003KT WIND THR14 28003KT BLU
LIBR - Brindisi/Casale, Italy
Distanza dalla stazione: ENE 62km
Dati ricevuti: 17/09/2021 19:50
Pioviggine, Nubi sparse
Pioviggine, Nubi sparse
 Vento da SO
Vento: SO 19 km/h
Temperatura: 27°C
Indice di Calore: 29°C
P.to Rugiada: 22°C
Umidità: 74%
Barometro: 1013 hPa
Riassunto: Pioviggine
Nuvole: Poche nubi
Visibilità: 10 km
Dettagli nuvole: Poche nubi 1219 m
2021/09/17 17:50 LIBR 171750Z 22010KT 9999 -RA FEW040 27/22 Q1013
 
LIBN - Lecce (it-Afb), Italy
Distanza dalla stazione: ESE 79km
Dati ricevuti: 17/09/2021 19:55
Sereno
Sereno
 Vento da SSO
Vento: SSO 7 km/h
Temperatura: 26°C
P.to Rugiada: 23°C
Umidità: 84%
Barometro: 1013 hPa
Riassunto: Sereno
Visibilità: superiore a 10 km
2021/09/17 17:55 LIBN 171755Z 21004KT CAVOK 26/23 Q1013 RMK BKN SCT090 BKN130 VIS MIN 9999 WIND THR14 21003KT WIND THR32 21004KT BLU
LIBD - Bari/Palese Macc, Italy
Distanza dalla stazione: NNO 85km
Dati ricevuti: 17/09/2021 19:50
Pioviggine, Parz. nuvoloso
Pioviggine, Parz. nuvoloso
 Vento da Variabile
Vento: Variabile 4 km/h
Temperatura: 23°C
P.to Rugiada: 20°C
Umidità: 83%
Barometro: 1014 hPa
Riassunto: Pioviggine
Nuvole: Parz. nuvoloso
Visibilità: 10 km
Dettagli nuvole: Parz. nuvoloso 1219 m
2021/09/17 17:50 LIBD 171750Z VRB02KT 9999 -RA SCT040 23/20 Q1014